createdAt,value
2018-06-03T00:00:00.922Z,16.09344
2018-06-03T00:00:13.481Z,8.04672
2018-06-03T00:00:25.928Z,8.04672
2018-06-03T00:00:38.369Z,9.656064
2018-06-03T00:00:50.802Z,9.656064
2018-06-03T00:01:03.227Z,3.218688
2018-06-03T00:01:15.797Z,11.265408
2018-06-03T00:01:28.236Z,11.265408
2018-06-03T00:01:40.668Z,14.484096
2018-06-03T00:01:53.096Z,14.484096
2018-06-03T00:02:05.527Z,8.04672
2018-06-03T00:02:17.946Z,9.656064
2018-06-03T00:02:30.370Z,9.656064
2018-06-03T00:02:42.955Z,19.312128
2018-06-03T00:02:55.380Z,19.312128
2018-06-03T00:03:07.821Z,16.09344
2018-06-03T00:03:20.236Z,16.09344
2018-06-03T00:03:32.657Z,16.09344
2018-06-03T00:03:45.088Z,19.312128
2018-06-03T00:03:57.606Z,19.312128
2018-06-03T00:04:10.036Z,14.484096
2018-06-03T00:04:22.453Z,14.484096
2018-06-03T00:04:34.895Z,14.484096
2018-06-03T00:04:47.316Z,14.484096
2018-06-03T00:04:59.785Z,14.484096
2018-06-03T00:05:12.203Z,6.437376
2018-06-03T00:05:24.634Z,9.656064
2018-06-03T00:05:37.061Z,9.656064
2018-06-03T00:05:49.486Z,11.265408
2018-06-03T00:06:01.919Z,11.265408
2018-06-03T00:06:14.357Z,9.656064
2018-06-03T00:06:26.810Z,14.484096
2018-06-03T00:06:39.224Z,14.484096
2018-06-03T00:06:51.668Z,14.484096
2018-06-03T00:07:04.111Z,8.04672
2018-06-03T00:07:16.532Z,8.04672
2018-06-03T00:07:28.965Z,8.04672
2018-06-03T00:07:41.414Z,9.656064
2018-06-03T00:07:53.846Z,9.656064
2018-06-03T00:08:06.258Z,8.04672
2018-06-03T00:08:18.683Z,12.874752
2018-06-03T00:08:31.089Z,12.874752
2018-06-03T00:08:43.538Z,12.874752
2018-06-03T00:08:55.959Z,12.874752
2018-06-03T00:09:08.392Z,11.265408
2018-06-03T00:09:20.840Z,11.265408
2018-06-03T00:09:33.262Z,12.874752
2018-06-03T00:09:45.924Z,14.484096
2018-06-03T00:09:58.699Z,14.484096
2018-06-03T00:10:11.130Z,11.265408
2018-06-03T00:10:23.548Z,11.265408
2018-06-03T00:10:35.955Z,11.265408
2018-06-03T00:10:53.466Z,14.484096
2018-06-03T00:11:05.874Z,20.921472
2018-06-03T00:11:18.292Z,20.921472
2018-06-03T00:11:30.710Z,20.921472
2018-06-03T00:11:43.108Z,20.921472
2018-06-03T00:11:55.541Z,20.921472
2018-06-03T00:12:07.972Z,11.265408
2018-06-03T00:12:20.386Z,11.265408
2018-06-03T00:12:32.811Z,12.874752
2018-06-03T00:12:45.231Z,12.874752
2018-06-03T00:12:57.659Z,12.874752
2018-06-03T00:13:10.093Z,19.312128
2018-06-03T00:13:22.552Z,19.312128
2018-06-03T00:13:34.964Z,19.312128
2018-06-03T00:13:47.392Z,19.312128
2018-06-03T00:13:59.807Z,19.312128
2018-06-03T00:14:12.227Z,16.09344
2018-06-03T00:14:24.700Z,16.09344
2018-06-03T00:14:37.116Z,16.09344
2018-06-03T00:14:49.540Z,16.09344
2018-06-03T00:15:02.018Z,16.09344
2018-06-03T00:15:14.425Z,11.265408
2018-06-03T00:15:26.838Z,11.265408
2018-06-03T00:15:39.237Z,12.874752
2018-06-03T00:15:51.700Z,16.09344
2018-06-03T00:16:04.192Z,16.09344
2018-06-03T00:16:16.609Z,17.702784
2018-06-03T00:16:29.028Z,17.702784
2018-06-03T00:16:41.432Z,17.702784
2018-06-03T00:16:53.857Z,17.702784
2018-06-03T00:17:06.296Z,14.484096
2018-06-03T00:17:18.700Z,19.312128
2018-06-03T00:17:31.134Z,19.312128
2018-06-03T00:17:43.562Z,19.312128
2018-06-03T00:17:55.995Z,19.312128
2018-06-03T00:18:08.658Z,11.265408
2018-06-03T00:18:21.060Z,12.874752
2018-06-03T00:18:33.494Z,12.874752
2018-06-03T00:18:45.925Z,12.874752
2018-06-03T00:18:58.358Z,12.874752
2018-06-03T00:19:10.771Z,8.04672
2018-06-03T00:19:23.262Z,8.04672
2018-06-03T00:19:35.692Z,9.656064
2018-06-03T00:19:48.128Z,9.656064
2018-06-03T00:20:00.540Z,9.656064
2018-06-03T00:20:12.961Z,8.04672
2018-06-03T00:20:25.386Z,9.656064
2018-06-03T00:20:37.811Z,9.656064
2018-06-03T00:20:50.237Z,11.265408
2018-06-03T00:21:02.662Z,12.874752
2018-06-03T00:21:15.099Z,11.265408
2018-06-03T00:21:27.519Z,11.265408
2018-06-03T00:21:39.949Z,11.265408
2018-06-03T00:21:52.355Z,11.265408
2018-06-03T00:22:04.790Z,6.437376
2018-06-03T00:22:17.207Z,12.874752
2018-06-03T00:22:29.628Z,16.09344
2018-06-03T00:22:42.067Z,16.09344
2018-06-03T00:22:54.489Z,16.09344
2018-06-03T00:23:06.898Z,9.656064
2018-06-03T00:23:19.342Z,9.656064
2018-06-03T00:23:31.764Z,9.656064
2018-06-03T00:23:44.211Z,9.656064
2018-06-03T00:23:56.618Z,9.656064
2018-06-03T00:24:09.072Z,9.656064
2018-06-03T00:24:21.511Z,11.265408
2018-06-03T00:24:33.979Z,14.484096
2018-06-03T00:24:46.431Z,14.484096
2018-06-03T00:24:58.859Z,14.484096
2018-06-03T00:25:11.280Z,9.656064
2018-06-03T00:25:23.701Z,11.265408
2018-06-03T00:25:36.138Z,16.09344
2018-06-03T00:25:48.551Z,16.09344
2018-06-03T00:26:00.988Z,16.09344
2018-06-03T00:26:14.161Z,12.874752
2018-06-03T00:26:27.083Z,12.874752
2018-06-03T00:26:39.500Z,12.874752
2018-06-03T00:26:51.945Z,14.484096
2018-06-03T00:27:04.370Z,9.656064
2018-06-03T00:27:16.799Z,12.874752
2018-06-03T00:27:29.209Z,14.484096
2018-06-03T00:27:41.629Z,16.09344
2018-06-03T00:27:54.033Z,16.09344
2018-06-03T00:28:06.435Z,14.484096
2018-06-03T00:28:18.891Z,14.484096
2018-06-03T00:28:31.449Z,14.484096
2018-06-03T00:28:43.883Z,14.484096
2018-06-03T00:28:56.304Z,14.484096
2018-06-03T00:29:08.745Z,11.265408
2018-06-03T00:29:21.221Z,11.265408
2018-06-03T00:29:33.640Z,11.265408
2018-06-03T00:29:46.072Z,14.484096
2018-06-03T00:29:58.488Z,14.484096
2018-06-03T00:30:11.039Z,11.265408
2018-06-03T00:30:23.450Z,12.874752
2018-06-03T00:30:35.886Z,12.874752
2018-06-03T00:30:48.308Z,12.874752
2018-06-03T00:31:00.719Z,12.874752
2018-06-03T00:31:13.133Z,12.874752
2018-06-03T00:31:25.534Z,12.874752
2018-06-03T00:31:37.933Z,12.874752
2018-06-03T00:31:50.353Z,12.874752
2018-06-03T00:32:02.774Z,12.874752
2018-06-03T00:32:15.192Z,11.265408
2018-06-03T00:32:27.601Z,16.09344
2018-06-03T00:32:40.007Z,17.702784
2018-06-03T00:32:52.435Z,19.312128
2018-06-03T00:33:04.868Z,11.265408
2018-06-03T00:33:17.293Z,14.484096
2018-06-03T00:33:29.710Z,14.484096
2018-06-03T00:33:42.139Z,14.484096
2018-06-03T00:33:54.555Z,19.312128
2018-06-03T00:34:06.973Z,14.484096
2018-06-03T00:34:19.375Z,16.09344
2018-06-03T00:34:31.819Z,16.09344
2018-06-03T00:34:44.232Z,16.09344
2018-06-03T00:34:56.736Z,16.09344
2018-06-03T00:35:09.238Z,6.437376
2018-06-03T00:35:21.683Z,6.437376
2018-06-03T00:35:34.107Z,8.04672
2018-06-03T00:35:46.522Z,8.04672
2018-06-03T00:35:58.942Z,12.874752
2018-06-03T00:36:11.342Z,8.04672
2018-06-03T00:36:23.758Z,9.656064
2018-06-03T00:36:36.169Z,11.265408
2018-06-03T00:36:48.606Z,12.874752
2018-06-03T00:37:01.012Z,19.312128
2018-06-03T00:37:13.418Z,16.09344
2018-06-03T00:37:25.829Z,16.09344
2018-06-03T00:37:38.230Z,16.09344
2018-06-03T00:37:50.647Z,16.09344
2018-06-03T00:38:03.088Z,11.265408
2018-06-03T00:38:15.493Z,12.874752
2018-06-03T00:38:27.939Z,16.09344
2018-06-03T00:38:40.376Z,16.09344
2018-06-03T00:38:52.796Z,16.09344
2018-06-03T00:39:05.206Z,14.484096
2018-06-03T00:39:17.659Z,14.484096
2018-06-03T00:39:30.084Z,14.484096
2018-06-03T00:39:42.523Z,14.484096
2018-06-03T00:39:54.948Z,14.484096
2018-06-03T00:40:07.397Z,9.656064
2018-06-03T00:40:19.932Z,14.484096
2018-06-03T00:40:33.010Z,14.484096
2018-06-03T00:40:45.430Z,19.312128
2018-06-03T00:40:57.847Z,19.312128
2018-06-03T00:41:10.432Z,14.484096
2018-06-03T00:41:22.845Z,14.484096
2018-06-03T00:41:35.244Z,14.484096
2018-06-03T00:41:47.663Z,14.484096
2018-06-03T00:42:00.102Z,14.484096
2018-06-03T00:42:12.526Z,6.437376
2018-06-03T00:42:24.953Z,9.656064
2018-06-03T00:42:37.370Z,11.265408
2018-06-03T00:42:49.791Z,11.265408
2018-06-03T00:43:02.197Z,11.265408
2018-06-03T00:43:14.619Z,12.874752
2018-06-03T00:43:27.032Z,12.874752
2018-06-03T00:43:39.474Z,12.874752
2018-06-03T00:43:51.960Z,12.874752
2018-06-03T00:44:04.397Z,9.656064
2018-06-03T00:44:16.993Z,9.656064
2018-06-03T00:44:29.500Z,9.656064
2018-06-03T00:44:41.948Z,9.656064
2018-06-03T00:44:54.349Z,9.656064
2018-06-03T00:45:06.781Z,12.874752
2018-06-03T00:45:19.216Z,12.874752
2018-06-03T00:45:31.638Z,12.874752
2018-06-03T00:45:44.065Z,12.874752
2018-06-03T00:45:56.526Z,12.874752
2018-06-03T00:46:08.949Z,8.04672
2018-06-03T00:46:21.347Z,8.04672
2018-06-03T00:46:33.768Z,8.04672
2018-06-03T00:46:46.210Z,8.04672
2018-06-03T00:46:58.611Z,8.04672
2018-06-03T00:47:11.049Z,8.04672
2018-06-03T00:47:23.498Z,8.04672
2018-06-03T00:47:35.913Z,8.04672
2018-06-03T00:47:48.325Z,8.04672
2018-06-03T00:48:00.759Z,8.04672
2018-06-03T00:48:13.193Z,9.656064
2018-06-03T00:48:25.764Z,11.265408
2018-06-03T00:48:38.198Z,11.265408
2018-06-03T00:48:50.609Z,11.265408
2018-06-03T00:49:03.039Z,11.265408
2018-06-03T00:49:15.478Z,11.265408
2018-06-03T00:49:27.889Z,11.265408
2018-06-03T00:49:40.295Z,11.265408
2018-06-03T00:49:52.729Z,11.265408
2018-06-03T00:50:05.181Z,9.656064
2018-06-03T00:50:17.611Z,9.656064
2018-06-03T00:50:30.011Z,11.265408
2018-06-03T00:50:42.433Z,14.484096
2018-06-03T00:50:54.847Z,14.484096
2018-06-03T00:51:07.305Z,12.874752
2018-06-03T00:51:19.739Z,12.874752
2018-06-03T00:51:32.175Z,16.09344
2018-06-03T00:51:44.664Z,17.702784
2018-06-03T00:51:57.090Z,17.702784
2018-06-03T00:52:09.501Z,16.09344
2018-06-03T00:52:21.927Z,16.09344
2018-06-03T00:52:34.345Z,16.09344
2018-06-03T00:52:47.099Z,16.09344
2018-06-03T00:52:59.638Z,16.09344
2018-06-03T00:53:12.059Z,8.04672
2018-06-03T00:53:24.467Z,12.874752
2018-06-03T00:53:36.887Z,16.09344
2018-06-03T00:53:49.310Z,16.09344
2018-06-03T00:54:01.863Z,16.09344
2018-06-03T00:54:14.355Z,19.312128
2018-06-03T00:54:26.789Z,19.312128
2018-06-03T00:54:39.214Z,19.312128
2018-06-03T00:54:51.626Z,19.312128
2018-06-03T00:55:04.029Z,11.265408
2018-06-03T00:55:16.453Z,11.265408
2018-06-03T00:55:28.851Z,14.484096
2018-06-03T00:55:41.262Z,14.484096
2018-06-03T00:55:53.676Z,14.484096
2018-06-03T00:56:06.098Z,12.874752
2018-06-03T00:56:18.517Z,16.09344
2018-06-03T00:56:30.932Z,16.09344
2018-06-03T00:56:43.351Z,16.09344
2018-06-03T00:56:55.763Z,16.09344
2018-06-03T00:57:08.192Z,9.656064
2018-06-03T00:57:20.607Z,9.656064
2018-06-03T00:57:33.021Z,11.265408
2018-06-03T00:57:45.509Z,11.265408
2018-06-03T00:57:57.974Z,11.265408
2018-06-03T00:58:10.415Z,12.874752
2018-06-03T00:58:22.828Z,12.874752
2018-06-03T00:58:35.294Z,12.874752
2018-06-03T00:58:47.710Z,12.874752
2018-06-03T00:59:00.136Z,12.874752
2018-06-03T00:59:12.556Z,3.218688
2018-06-03T00:59:25.018Z,9.656064
2018-06-03T00:59:37.432Z,11.265408
2018-06-03T00:59:49.873Z,11.265408
2018-06-03T01:00:02.318Z,11.265408
2018-06-03T01:00:14.750Z,9.656064
2018-06-03T01:00:27.180Z,11.265408
2018-06-03T01:00:39.625Z,11.265408
2018-06-03T01:00:52.101Z,11.265408
2018-06-03T01:01:04.545Z,3.218688
2018-06-03T01:01:17.030Z,11.265408
2018-06-03T01:01:29.459Z,11.265408
2018-06-03T01:01:41.871Z,11.265408
2018-06-03T01:01:54.301Z,11.265408
2018-06-03T01:02:06.759Z,9.656064
2018-06-03T01:02:19.202Z,9.656064
2018-06-03T01:02:31.615Z,11.265408
2018-06-03T01:02:44.078Z,11.265408
2018-06-03T01:02:56.506Z,11.265408
2018-06-03T01:03:08.919Z,6.437376
2018-06-03T01:03:21.540Z,9.656064
2018-06-03T01:03:33.947Z,9.656064
2018-06-03T01:03:46.396Z,9.656064
2018-06-03T01:03:58.829Z,9.656064
2018-06-03T01:04:11.250Z,8.04672
2018-06-03T01:04:23.681Z,8.04672
2018-06-03T01:04:36.211Z,8.04672
2018-06-03T01:04:48.688Z,9.656064
2018-06-03T01:05:01.101Z,9.656064
2018-06-03T01:05:13.568Z,11.265408
2018-06-03T01:05:25.997Z,11.265408
2018-06-03T01:05:38.438Z,11.265408
2018-06-03T01:05:50.866Z,12.874752
2018-06-03T01:06:03.281Z,14.484096
2018-06-03T01:06:15.808Z,14.484096
2018-06-03T01:06:28.233Z,14.484096
2018-06-03T01:06:40.658Z,14.484096
2018-06-03T01:06:53.084Z,14.484096
2018-06-03T01:07:05.494Z,9.656064
2018-06-03T01:07:17.921Z,14.484096
2018-06-03T01:07:30.337Z,16.09344
2018-06-03T01:07:42.750Z,16.09344
2018-06-03T01:07:55.172Z,16.09344
2018-06-03T01:08:07.617Z,4.828032
2018-06-03T01:08:20.038Z,12.874752
2018-06-03T01:08:32.477Z,12.874752
2018-06-03T01:08:44.956Z,16.09344
2018-06-03T01:08:57.398Z,16.09344
2018-06-03T01:09:09.864Z,12.874752
2018-06-03T01:09:22.319Z,12.874752
2018-06-03T01:09:34.751Z,12.874752
2018-06-03T01:09:47.188Z,12.874752
2018-06-03T01:09:59.613Z,12.874752
2018-06-03T01:10:12.049Z,9.656064
2018-06-03T01:10:24.503Z,9.656064
2018-06-03T01:10:36.913Z,11.265408
2018-06-03T01:10:49.683Z,11.265408
2018-06-03T01:11:02.097Z,11.265408
2018-06-03T01:11:14.503Z,4.828032
2018-06-03T01:11:26.956Z,4.828032
2018-06-03T01:11:39.417Z,8.04672
2018-06-03T01:11:51.864Z,9.656064
2018-06-03T01:12:04.313Z,6.437376
2018-06-03T01:12:16.740Z,6.437376
2018-06-03T01:12:29.142Z,9.656064
2018-06-03T01:12:41.561Z,16.09344
2018-06-03T01:12:53.983Z,17.702784
2018-06-03T01:13:06.403Z,9.656064
2018-06-03T01:13:18.839Z,9.656064
2018-06-03T01:13:31.267Z,12.874752
2018-06-03T01:13:43.699Z,14.484096
2018-06-03T01:13:56.112Z,14.484096
2018-06-03T01:14:08.544Z,9.656064
2018-06-03T01:14:21.024Z,9.656064
2018-06-03T01:14:33.529Z,11.265408
2018-06-03T01:14:45.945Z,14.484096
2018-06-03T01:14:58.379Z,14.484096
2018-06-03T01:15:10.782Z,9.656064
2018-06-03T01:15:23.224Z,11.265408
2018-06-03T01:15:35.636Z,11.265408
2018-06-03T01:15:48.056Z,11.265408
2018-06-03T01:16:00.531Z,11.265408
2018-06-03T01:16:12.958Z,9.656064
2018-06-03T01:16:25.365Z,12.874752
2018-06-03T01:16:37.790Z,12.874752
2018-06-03T01:16:50.225Z,12.874752
2018-06-03T01:17:02.651Z,12.874752
2018-06-03T01:17:15.126Z,11.265408
2018-06-03T01:17:27.539Z,14.484096
2018-06-03T01:17:39.948Z,14.484096
2018-06-03T01:17:52.374Z,14.484096
2018-06-03T01:18:04.788Z,8.04672
2018-06-03T01:18:17.338Z,11.265408
2018-06-03T01:18:29.777Z,11.265408
2018-06-03T01:18:42.185Z,11.265408
2018-06-03T01:18:54.666Z,12.874752
2018-06-03T01:19:07.079Z,12.874752
2018-06-03T01:19:19.502Z,14.484096
2018-06-03T01:19:31.930Z,14.484096
2018-06-03T01:19:44.325Z,14.484096
2018-06-03T01:19:56.729Z,14.484096
2018-06-03T01:20:09.134Z,11.265408
2018-06-03T01:20:21.534Z,11.265408
2018-06-03T01:20:33.941Z,14.484096
2018-06-03T01:20:46.366Z,14.484096
2018-06-03T01:20:58.786Z,14.484096
2018-06-03T01:21:11.192Z,9.656064
2018-06-03T01:21:23.615Z,9.656064
2018-06-03T01:21:36.032Z,9.656064
2018-06-03T01:21:48.447Z,9.656064
2018-06-03T01:22:00.947Z,9.656064
2018-06-03T01:22:13.366Z,9.656064
2018-06-03T01:22:25.767Z,9.656064
2018-06-03T01:22:38.176Z,11.265408
2018-06-03T01:22:50.594Z,11.265408
2018-06-03T01:23:03.031Z,11.265408
2018-06-03T01:23:15.562Z,12.874752
2018-06-03T01:23:27.983Z,14.484096
2018-06-03T01:23:40.428Z,14.484096
2018-06-03T01:23:52.862Z,14.484096
2018-06-03T01:24:05.284Z,9.656064
2018-06-03T01:24:17.705Z,9.656064
2018-06-03T01:24:30.116Z,9.656064
2018-06-03T01:24:42.529Z,9.656064
2018-06-03T01:24:54.933Z,12.874752
2018-06-03T01:25:07.368Z,14.484096
2018-06-03T01:25:19.792Z,14.484096
2018-06-03T01:25:32.216Z,14.484096
2018-06-03T01:25:44.685Z,16.09344
2018-06-03T01:25:57.119Z,16.09344
2018-06-03T01:26:09.541Z,9.656064
2018-06-03T01:26:22.016Z,11.265408
2018-06-03T01:26:34.469Z,11.265408
2018-06-03T01:26:46.887Z,11.265408
2018-06-03T01:26:59.282Z,11.265408
2018-06-03T01:27:11.705Z,11.265408
2018-06-03T01:27:24.133Z,11.265408
2018-06-03T01:27:36.587Z,11.265408
2018-06-03T01:27:48.998Z,12.874752
2018-06-03T01:28:01.410Z,19.312128
2018-06-03T01:28:13.826Z,16.09344
2018-06-03T01:28:26.422Z,16.09344
2018-06-03T01:28:38.841Z,16.09344
2018-06-03T01:28:51.256Z,16.09344
2018-06-03T01:29:03.671Z,9.656064
2018-06-03T01:29:16.135Z,9.656064
2018-06-03T01:29:28.657Z,11.265408
2018-06-03T01:29:41.127Z,11.265408
2018-06-03T01:29:53.541Z,11.265408
2018-06-03T01:30:06.067Z,9.656064
2018-06-03T01:30:18.522Z,11.265408
2018-06-03T01:30:30.943Z,11.265408
2018-06-03T01:30:43.355Z,11.265408
2018-06-03T01:30:55.765Z,11.265408
2018-06-03T01:31:08.181Z,8.04672
2018-06-03T01:31:20.598Z,8.04672
2018-06-03T01:31:33.010Z,11.265408
2018-06-03T01:31:45.424Z,11.265408
2018-06-03T01:31:57.852Z,11.265408
2018-06-03T01:32:10.286Z,9.656064
2018-06-03T01:32:22.700Z,11.265408
2018-06-03T01:32:35.120Z,11.265408
2018-06-03T01:32:47.547Z,11.265408
2018-06-03T01:33:00.009Z,11.265408
2018-06-03T01:33:12.419Z,9.656064
2018-06-03T01:33:24.853Z,9.656064
2018-06-03T01:33:37.273Z,9.656064
2018-06-03T01:33:49.717Z,9.656064
2018-06-03T01:34:02.137Z,11.265408
2018-06-03T01:34:14.589Z,12.874752
2018-06-03T01:34:27.018Z,14.484096
2018-06-03T01:34:39.426Z,14.484096
2018-06-03T01:34:51.857Z,16.09344
2018-06-03T01:35:04.373Z,11.265408
2018-06-03T01:35:16.789Z,12.874752
2018-06-03T01:35:29.215Z,14.484096
2018-06-03T01:35:41.628Z,14.484096
2018-06-03T01:35:54.032Z,14.484096
2018-06-03T01:36:06.449Z,12.874752
2018-06-03T01:36:18.861Z,14.484096
2018-06-03T01:36:31.431Z,14.484096
2018-06-03T01:36:43.852Z,14.484096
2018-06-03T01:36:56.280Z,14.484096
2018-06-03T01:37:08.687Z,14.484096
2018-06-03T01:37:21.099Z,19.312128
2018-06-03T01:37:33.520Z,19.312128
2018-06-03T01:37:45.959Z,19.312128
2018-06-03T01:37:58.391Z,19.312128
2018-06-03T01:38:10.823Z,8.04672
2018-06-03T01:38:23.238Z,12.874752
2018-06-03T01:38:35.671Z,12.874752
2018-06-03T01:38:48.107Z,12.874752
2018-06-03T01:39:00.522Z,12.874752
2018-06-03T01:39:12.939Z,9.656064
2018-06-03T01:39:25.413Z,9.656064
2018-06-03T01:39:37.812Z,11.265408
2018-06-03T01:39:50.314Z,12.874752
2018-06-03T01:40:02.766Z,16.09344
2018-06-03T01:40:15.180Z,17.702784
2018-06-03T01:40:27.581Z,17.702784
2018-06-03T01:40:39.986Z,17.702784
2018-06-03T01:40:52.396Z,17.702784
2018-06-03T01:41:04.999Z,9.656064
2018-06-03T01:41:17.438Z,11.265408
2018-06-03T01:41:29.907Z,11.265408
2018-06-03T01:41:42.344Z,11.265408
2018-06-03T01:41:54.755Z,11.265408
2018-06-03T01:42:07.191Z,9.656064
2018-06-03T01:42:19.650Z,9.656064
2018-06-03T01:42:32.084Z,9.656064
2018-06-03T01:42:44.487Z,11.265408
2018-06-03T01:42:56.898Z,11.265408
2018-06-03T01:43:09.314Z,14.484096
2018-06-03T01:43:21.722Z,14.484096
2018-06-03T01:43:34.161Z,14.484096
2018-06-03T01:43:46.583Z,14.484096
2018-06-03T01:43:59.020Z,14.484096
2018-06-03T01:44:11.457Z,8.04672
2018-06-03T01:44:23.903Z,8.04672
2018-06-03T01:44:36.324Z,9.656064
2018-06-03T01:44:48.808Z,9.656064
2018-06-03T01:45:01.232Z,9.656064
2018-06-03T01:45:13.659Z,3.218688
2018-06-03T01:45:26.144Z,9.656064
2018-06-03T01:45:38.558Z,16.09344
2018-06-03T01:45:50.962Z,16.09344
2018-06-03T01:46:03.433Z,11.265408
2018-06-03T01:46:15.873Z,11.265408
2018-06-03T01:46:28.291Z,11.265408
2018-06-03T01:46:40.744Z,12.874752
2018-06-03T01:46:53.175Z,16.09344
2018-06-03T01:47:05.611Z,12.874752
2018-06-03T01:47:18.042Z,12.874752
2018-06-03T01:47:30.461Z,12.874752
2018-06-03T01:47:42.923Z,14.484096
2018-06-03T01:47:55.400Z,14.484096
2018-06-03T01:48:07.812Z,14.484096
2018-06-03T01:48:20.228Z,14.484096
2018-06-03T01:48:33.047Z,14.484096
2018-06-03T01:48:45.462Z,14.484096
2018-06-03T01:48:57.865Z,14.484096
2018-06-03T01:49:10.280Z,11.265408
2018-06-03T01:49:22.719Z,12.874752
2018-06-03T01:49:35.140Z,12.874752
2018-06-03T01:49:47.556Z,12.874752
2018-06-03T01:49:59.996Z,12.874752
2018-06-03T01:50:12.424Z,9.656064
2018-06-03T01:50:24.832Z,9.656064
2018-06-03T01:50:37.273Z,9.656064
2018-06-03T01:50:49.673Z,9.656064
2018-06-03T01:51:02.114Z,9.656064
2018-06-03T01:51:14.603Z,6.437376
2018-06-03T01:51:27.041Z,6.437376
2018-06-03T01:51:39.479Z,8.04672
2018-06-03T01:51:51.929Z,9.656064
2018-06-03T01:52:04.366Z,12.874752
2018-06-03T01:52:16.802Z,12.874752
2018-06-03T01:52:29.233Z,12.874752
2018-06-03T01:52:41.731Z,12.874752
2018-06-03T01:52:54.166Z,12.874752
2018-06-03T01:53:06.575Z,9.656064
2018-06-03T01:53:19.004Z,9.656064
2018-06-03T01:53:31.440Z,11.265408
2018-06-03T01:53:43.868Z,11.265408
2018-06-03T01:53:56.371Z,12.874752
2018-06-03T01:54:08.812Z,9.656064
2018-06-03T01:54:21.240Z,11.265408
2018-06-03T01:54:33.674Z,11.265408
2018-06-03T01:54:46.099Z,11.265408
2018-06-03T01:54:58.515Z,11.265408
2018-06-03T01:55:10.943Z,12.874752
2018-06-03T01:55:23.361Z,12.874752
2018-06-03T01:55:35.809Z,12.874752
2018-06-03T01:55:48.219Z,14.484096
2018-06-03T01:56:00.649Z,14.484096
2018-06-03T01:56:13.097Z,6.437376
2018-06-03T01:56:25.503Z,9.656064
2018-06-03T01:56:37.933Z,9.656064
2018-06-03T01:56:50.362Z,11.265408
2018-06-03T01:57:02.777Z,11.265408
2018-06-03T01:57:15.208Z,8.04672
2018-06-03T01:57:27.679Z,8.04672
2018-06-03T01:57:40.103Z,8.04672
2018-06-03T01:57:52.517Z,9.656064
2018-06-03T01:58:04.997Z,8.04672
2018-06-03T01:58:17.422Z,8.04672
2018-06-03T01:58:29.828Z,8.04672
2018-06-03T01:58:42.243Z,8.04672
2018-06-03T01:58:54.686Z,16.09344
2018-06-03T01:59:07.145Z,11.265408
2018-06-03T01:59:19.583Z,11.265408
2018-06-03T01:59:32.067Z,14.484096
2018-06-03T01:59:44.499Z,14.484096
2018-06-03T01:59:56.907Z,14.484096
2018-06-03T02:00:09.366Z,9.656064
2018-06-03T02:00:21.820Z,11.265408
2018-06-03T02:00:34.280Z,11.265408
2018-06-03T02:00:46.725Z,11.265408
2018-06-03T02:00:59.199Z,11.265408
2018-06-03T02:01:11.676Z,4.828032
2018-06-03T02:01:24.116Z,8.04672
2018-06-03T02:01:36.548Z,12.874752
2018-06-03T02:01:48.978Z,12.874752
2018-06-03T02:02:01.426Z,12.874752
2018-06-03T02:02:13.864Z,9.656064
2018-06-03T02:02:26.314Z,9.656064
2018-06-03T02:02:38.735Z,9.656064
2018-06-03T02:02:51.165Z,9.656064
2018-06-03T02:03:03.599Z,8.04672
2018-06-03T02:03:16.064Z,9.656064
2018-06-03T02:03:28.474Z,9.656064
2018-06-03T02:03:40.873Z,9.656064
2018-06-03T02:03:53.488Z,9.656064
2018-06-03T02:04:05.907Z,6.437376
2018-06-03T02:04:18.311Z,8.04672
2018-06-03T02:04:30.716Z,8.04672
2018-06-03T02:04:43.139Z,9.656064
2018-06-03T02:04:55.557Z,9.656064
2018-06-03T02:05:08.011Z,4.828032
2018-06-03T02:05:20.439Z,6.437376
2018-06-03T02:05:32.861Z,8.04672
2018-06-03T02:05:45.265Z,9.656064
2018-06-03T02:05:57.715Z,9.656064
2018-06-03T02:06:10.183Z,8.04672
2018-06-03T02:06:22.585Z,9.656064
2018-06-03T02:06:35.026Z,9.656064
2018-06-03T02:06:47.421Z,9.656064
2018-06-03T02:06:59.830Z,9.656064
2018-06-03T02:07:12.470Z,6.437376
2018-06-03T02:07:24.913Z,8.04672
2018-06-03T02:07:37.325Z,8.04672
2018-06-03T02:07:49.743Z,11.265408
2018-06-03T02:08:02.176Z,11.265408
2018-06-03T02:08:14.622Z,12.874752
2018-06-03T02:08:27.033Z,12.874752
2018-06-03T02:08:39.439Z,12.874752
2018-06-03T02:08:51.887Z,12.874752
2018-06-03T02:09:04.317Z,8.04672
2018-06-03T02:09:16.742Z,8.04672
2018-06-03T02:09:29.172Z,8.04672
2018-06-03T02:09:41.619Z,8.04672
2018-06-03T02:09:54.066Z,8.04672
2018-06-03T02:10:06.535Z,8.04672
2018-06-03T02:10:18.974Z,8.04672
2018-06-03T02:10:31.400Z,8.04672
2018-06-03T02:10:43.804Z,8.04672
2018-06-03T02:10:56.672Z,8.04672
2018-06-03T02:11:09.083Z,3.218688
2018-06-03T02:11:21.499Z,8.04672
2018-06-03T02:11:33.991Z,8.04672
2018-06-03T02:11:46.428Z,8.04672
2018-06-03T02:11:58.858Z,9.656064
2018-06-03T02:12:11.279Z,8.04672
2018-06-03T02:12:23.693Z,8.04672
2018-06-03T02:12:36.114Z,12.874752
2018-06-03T02:12:48.549Z,12.874752
2018-06-03T02:13:00.946Z,12.874752
2018-06-03T02:13:13.424Z,11.265408
2018-06-03T02:13:25.851Z,11.265408
2018-06-03T02:13:38.263Z,11.265408
2018-06-03T02:13:50.668Z,11.265408
2018-06-03T02:14:03.128Z,11.265408
2018-06-03T02:14:15.543Z,8.04672
2018-06-03T02:14:27.957Z,8.04672
2018-06-03T02:14:40.392Z,8.04672
2018-06-03T02:14:52.805Z,8.04672
2018-06-03T02:15:05.236Z,11.265408
2018-06-03T02:15:17.666Z,12.874752
2018-06-03T02:15:30.109Z,12.874752
2018-06-03T02:15:42.551Z,12.874752
2018-06-03T02:15:54.986Z,12.874752
2018-06-03T02:16:07.418Z,11.265408
2018-06-03T02:16:19.863Z,11.265408
2018-06-03T02:16:32.315Z,11.265408
2018-06-03T02:16:44.773Z,11.265408
2018-06-03T02:16:57.186Z,11.265408
2018-06-03T02:17:09.615Z,8.04672
2018-06-03T02:17:22.008Z,8.04672
2018-06-03T02:17:34.426Z,9.656064
2018-06-03T02:17:46.824Z,9.656064
2018-06-03T02:17:59.227Z,9.656064
2018-06-03T02:18:11.794Z,14.484096
2018-06-03T02:18:24.218Z,14.484096
2018-06-03T02:18:36.621Z,14.484096
2018-06-03T02:18:49.050Z,14.484096
2018-06-03T02:19:01.463Z,14.484096
2018-06-03T02:19:13.923Z,12.874752
2018-06-03T02:19:26.336Z,12.874752
2018-06-03T02:19:38.769Z,12.874752
2018-06-03T02:19:51.181Z,12.874752
2018-06-03T02:20:03.618Z,12.874752
2018-06-03T02:20:16.051Z,12.874752
2018-06-03T02:20:28.477Z,12.874752
2018-06-03T02:20:40.917Z,12.874752
2018-06-03T02:20:53.337Z,12.874752
2018-06-03T02:21:05.763Z,6.437376
2018-06-03T02:21:18.196Z,6.437376
2018-06-03T02:21:30.647Z,6.437376
2018-06-03T02:21:43.069Z,9.656064
2018-06-03T02:21:55.477Z,9.656064
2018-06-03T02:22:07.893Z,9.656064
2018-06-03T02:22:20.336Z,9.656064
2018-06-03T02:22:32.750Z,11.265408
2018-06-03T02:22:45.173Z,11.265408
2018-06-03T02:22:57.593Z,11.265408
2018-06-03T02:23:10.061Z,4.828032
2018-06-03T02:23:22.495Z,8.04672
2018-06-03T02:23:34.923Z,9.656064
2018-06-03T02:23:47.351Z,9.656064
2018-06-03T02:23:59.775Z,9.656064